sensor_id;sensor_type;location;lat;lon;timestamp;P1;durP1;ratioP1;P2;durP2;ratioP2
6121;SDS011;3091;51.506;7.672;2024-03-25T00:00:11;24.50;;;22.53;;
6121;SDS011;3091;51.506;7.672;2024-03-25T00:02:38;22.60;;;21.70;;
6121;SDS011;3091;51.506;7.672;2024-03-25T00:05:04;22.70;;;21.73;;
6121;SDS011;3091;51.506;7.672;2024-03-25T00:07:32;21.90;;;20.83;;
6121;SDS011;3091;51.506;7.672;2024-03-25T00:09:58;23.80;;;22.70;;
6121;SDS011;3091;51.506;7.672;2024-03-25T00:12:27;21.90;;;21.10;;
6121;SDS011;3091;51.506;7.672;2024-03-25T00:14:53;27.47;;;26.30;;
6121;SDS011;3091;51.506;7.672;2024-03-25T00:17:19;33.13;;;31.20;;
6121;SDS011;3091;51.506;7.672;2024-03-25T00:19:48;72.60;;;69.40;;
6121;SDS011;3091;51.506;7.672;2024-03-25T00:22:17;84.90;;;81.07;;
6121;SDS011;3091;51.506;7.672;2024-03-25T00:24:44;100.93;;;96.87;;
6121;SDS011;3091;51.506;7.672;2024-03-25T00:27:10;123.20;;;118.70;;
6121;SDS011;3091;51.506;7.672;2024-03-25T00:29:36;136.30;;;131.40;;
6121;SDS011;3091;51.506;7.672;2024-03-25T00:32:02;144.43;;;138.80;;
6121;SDS011;3091;51.506;7.672;2024-03-25T00:34:28;118.47;;;113.87;;
6121;SDS011;3091;51.506;7.672;2024-03-25T00:36:54;107.00;;;102.43;;
6121;SDS011;3091;51.506;7.672;2024-03-25T00:39:23;116.10;;;111.30;;
6121;SDS011;3091;51.506;7.672;2024-03-25T00:41:49;132.60;;;127.40;;
6121;SDS011;3091;51.506;7.672;2024-03-25T00:44:15;138.67;;;133.43;;
6121;SDS011;3091;51.506;7.672;2024-03-25T00:46:41;139.77;;;133.70;;
6121;SDS011;3091;51.506;7.672;2024-03-25T00:49:07;136.73;;;131.63;;
6121;SDS011;3091;51.506;7.672;2024-03-25T00:51:33;129.30;;;124.40;;
6121;SDS011;3091;51.506;7.672;2024-03-25T00:54:00;126.93;;;121.70;;
6121;SDS011;3091;51.506;7.672;2024-03-25T00:56:26;106.47;;;102.00;;
6121;SDS011;3091;51.506;7.672;2024-03-25T00:58:53;124.47;;;119.57;;
6121;SDS011;3091;51.506;7.672;2024-03-25T01:01:19;150.47;;;144.67;;
6121;SDS011;3091;51.506;7.672;2024-03-25T01:03:45;171.13;;;164.17;;
6121;SDS011;3091;51.506;7.672;2024-03-25T01:06:11;171.50;;;164.40;;
6121;SDS011;3091;51.506;7.672;2024-03-25T01:08:40;160.63;;;154.07;;
6121;SDS011;3091;51.506;7.672;2024-03-25T01:11:06;154.00;;;147.53;;
6121;SDS011;3091;51.506;7.672;2024-03-25T01:13:32;135.97;;;129.27;;
6121;SDS011;3091;51.506;7.672;2024-03-25T01:15:58;138.73;;;132.57;;
6121;SDS011;3091;51.506;7.672;2024-03-25T01:18:24;143.83;;;137.40;;
6121;SDS011;3091;51.506;7.672;2024-03-25T01:20:50;163.20;;;156.20;;
6121;SDS011;3091;51.506;7.672;2024-03-25T01:23:16;162.90;;;155.90;;
6121;SDS011;3091;51.506;7.672;2024-03-25T01:25:42;159.87;;;152.97;;
6121;SDS011;3091;51.506;7.672;2024-03-25T01:28:08;161.13;;;154.23;;
6121;SDS011;3091;51.506;7.672;2024-03-25T01:30:34;154.57;;;147.77;;
6121;SDS011;3091;51.506;7.672;2024-03-25T01:33:00;150.67;;;144.17;;
6121;SDS011;3091;51.506;7.672;2024-03-25T01:35:26;146.13;;;139.67;;
6121;SDS011;3091;51.506;7.672;2024-03-25T01:37:53;132.53;;;126.47;;
6121;SDS011;3091;51.506;7.672;2024-03-25T01:40:19;138.00;;;131.60;;
6121;SDS011;3091;51.506;7.672;2024-03-25T01:43:01;136.20;;;130.10;;
6121;SDS011;3091;51.506;7.672;2024-03-25T01:45:28;141.30;;;135.00;;
6121;SDS011;3091;51.506;7.672;2024-03-25T01:47:55;138.63;;;132.43;;
6121;SDS011;3091;51.506;7.672;2024-03-25T01:50:22;141.40;;;135.10;;
6121;SDS011;3091;51.506;7.672;2024-03-25T01:52:48;156.13;;;149.33;;
6121;SDS011;3091;51.506;7.672;2024-03-25T01:55:15;156.30;;;149.63;;
6121;SDS011;3091;51.506;7.672;2024-03-25T01:57:45;163.10;;;156.03;;
6121;SDS011;3091;51.506;7.672;2024-03-25T02:00:11;160.17;;;153.47;;
6121;SDS011;3091;51.506;7.672;2024-03-25T02:02:39;155.47;;;148.03;;
6121;SDS011;3091;51.506;7.672;2024-03-25T02:05:18;152.30;;;145.90;;
6121;SDS011;3091;51.506;7.672;2024-03-25T02:07:44;153.20;;;146.40;;
6121;SDS011;3091;51.506;7.672;2024-03-25T02:10:11;133.53;;;127.60;;
6121;SDS011;3091;51.506;7.672;2024-03-25T02:12:40;131.53;;;125.67;;
6121;SDS011;3091;51.506;7.672;2024-03-25T02:15:07;123.93;;;118.53;;
6121;SDS011;3091;51.506;7.672;2024-03-25T02:17:34;124.27;;;118.87;;
6121;SDS011;3091;51.506;7.672;2024-03-25T02:20:00;124.80;;;119.40;;
6121;SDS011;3091;51.506;7.672;2024-03-25T02:22:27;123.00;;;117.60;;
6121;SDS011;3091;51.506;7.672;2024-03-25T02:24:54;124.97;;;119.60;;
6121;SDS011;3091;51.506;7.672;2024-03-25T02:27:22;128.87;;;123.30;;
6121;SDS011;3091;51.506;7.672;2024-03-25T02:29:48;122.60;;;117.20;;
6121;SDS011;3091;51.506;7.672;2024-03-25T02:32:14;119.73;;;114.33;;
6121;SDS011;3091;51.506;7.672;2024-03-25T02:34:41;110.30;;;104.97;;
6121;SDS011;3091;51.506;7.672;2024-03-25T02:37:08;116.00;;;111.00;;
6121;SDS011;3091;51.506;7.672;2024-03-25T02:39:35;131.70;;;126.10;;
6121;SDS011;3091;51.506;7.672;2024-03-25T02:42:01;137.07;;;131.37;;
6121;SDS011;3091;51.506;7.672;2024-03-25T02:44:27;132.30;;;126.90;;
6121;SDS011;3091;51.506;7.672;2024-03-25T02:46:53;122.57;;;117.10;;
6121;SDS011;3091;51.506;7.672;2024-03-25T02:49:19;126.20;;;120.90;;
6121;SDS011;3091;51.506;7.672;2024-03-25T02:51:45;140.80;;;135.03;;
6121;SDS011;3091;51.506;7.672;2024-03-25T02:54:11;131.47;;;126.00;;
6121;SDS011;3091;51.506;7.672;2024-03-25T02:56:39;103.40;;;98.90;;
6121;SDS011;3091;51.506;7.672;2024-03-25T02:59:05;95.93;;;91.63;;
6121;SDS011;3091;51.506;7.672;2024-03-25T03:01:32;103.20;;;98.63;;
6121;SDS011;3091;51.506;7.672;2024-03-25T03:03:57;94.73;;;90.43;;
6121;SDS011;3091;51.506;7.672;2024-03-25T03:06:23;89.60;;;85.70;;
6121;SDS011;3091;51.506;7.672;2024-03-25T03:08:50;83.10;;;79.30;;
6121;SDS011;3091;51.506;7.672;2024-03-25T03:11:16;69.53;;;66.23;;
6121;SDS011;3091;51.506;7.672;2024-03-25T03:13:42;58.27;;;54.80;;
6121;SDS011;3091;51.506;7.672;2024-03-25T03:16:08;54.57;;;51.67;;
6121;SDS011;3091;51.506;7.672;2024-03-25T03:18:34;55.30;;;52.40;;
6121;SDS011;3091;51.506;7.672;2024-03-25T03:21:00;53.77;;;50.93;;
6121;SDS011;3091;51.506;7.672;2024-03-25T03:23:26;56.80;;;53.83;;
6121;SDS011;3091;51.506;7.672;2024-03-25T03:25:52;51.40;;;48.50;;
6121;SDS011;3091;51.506;7.672;2024-03-25T03:28:18;44.90;;;42.60;;
6121;SDS011;3091;51.506;7.672;2024-03-25T03:30:44;41.63;;;39.33;;
6121;SDS011;3091;51.506;7.672;2024-03-25T03:33:10;36.47;;;34.13;;
6121;SDS011;3091;51.506;7.672;2024-03-25T03:35:36;34.20;;;32.20;;
6121;SDS011;3091;51.506;7.672;2024-03-25T03:38:02;36.10;;;33.70;;
6121;SDS011;3091;51.506;7.672;2024-03-25T03:40:28;35.87;;;33.87;;
6121;SDS011;3091;51.506;7.672;2024-03-25T03:42:55;38.23;;;36.03;;
6121;SDS011;3091;51.506;7.672;2024-03-25T03:45:23;38.70;;;36.17;;
6121;SDS011;3091;51.506;7.672;2024-03-25T03:47:49;37.43;;;34.90;;
6121;SDS011;3091;51.506;7.672;2024-03-25T03:50:15;37.43;;;35.03;;
6121;SDS011;3091;51.506;7.672;2024-03-25T03:52:41;36.33;;;34.23;;
6121;SDS011;3091;51.506;7.672;2024-03-25T03:55:07;34.20;;;32.20;;
6121;SDS011;3091;51.506;7.672;2024-03-25T03:57:33;32.10;;;30.20;;
6121;SDS011;3091;51.506;7.672;2024-03-25T03:59:59;33.60;;;31.60;;
6121;SDS011;3091;51.506;7.672;2024-03-25T04:02:28;35.40;;;33.10;;
6121;SDS011;3091;51.506;7.672;2024-03-25T04:04:54;35.90;;;33.80;;
6121;SDS011;3091;51.506;7.672;2024-03-25T04:07:28;36.20;;;34.20;;
6121;SDS011;3091;51.506;7.672;2024-03-25T04:09:55;38.90;;;36.07;;
6121;SDS011;3091;51.506;7.672;2024-03-25T04:12:21;36.30;;;34.17;;
6121;SDS011;3091;51.506;7.672;2024-03-25T04:14:50;36.67;;;34.40;;
6121;SDS011;3091;51.506;7.672;2024-03-25T04:17:20;36.30;;;34.10;;
6121;SDS011;3091;51.506;7.672;2024-03-25T04:19:48;36.43;;;33.87;;
6121;SDS011;3091;51.506;7.672;2024-03-25T04:22:14;32.70;;;30.70;;
6121;SDS011;3091;51.506;7.672;2024-03-25T04:24:41;34.80;;;32.40;;
6121;SDS011;3091;51.506;7.672;2024-03-25T04:27:07;33.77;;;31.53;;
6121;SDS011;3091;51.506;7.672;2024-03-25T04:29:33;33.23;;;30.90;;
6121;SDS011;3091;51.506;7.672;2024-03-25T04:32:01;32.37;;;29.90;;
6121;SDS011;3091;51.506;7.672;2024-03-25T04:34:28;30.57;;;28.70;;
6121;SDS011;3091;51.506;7.672;2024-03-25T04:36:54;30.70;;;28.90;;
6121;SDS011;3091;51.506;7.672;2024-03-25T04:39:20;32.07;;;30.20;;
6121;SDS011;3091;51.506;7.672;2024-03-25T04:41:47;32.90;;;30.97;;
6121;SDS011;3091;51.506;7.672;2024-03-25T04:44:13;30.90;;;29.20;;
6121;SDS011;3091;51.506;7.672;2024-03-25T04:46:39;28.40;;;26.90;;
6121;SDS011;3091;51.506;7.672;2024-03-25T04:49:05;29.60;;;28.00;;
6121;SDS011;3091;51.506;7.672;2024-03-25T04:51:31;32.37;;;30.53;;
6121;SDS011;3091;51.506;7.672;2024-03-25T04:54:00;28.10;;;26.50;;
6121;SDS011;3091;51.506;7.672;2024-03-25T04:56:26;29.83;;;27.63;;
6121;SDS011;3091;51.506;7.672;2024-03-25T04:58:52;28.57;;;26.77;;
6121;SDS011;3091;51.506;7.672;2024-03-25T05:01:18;27.93;;;26.33;;
6121;SDS011;3091;51.506;7.672;2024-03-25T05:03:45;26.63;;;25.03;;
6121;SDS011;3091;51.506;7.672;2024-03-25T05:06:13;27.57;;;25.90;;
6121;SDS011;3091;51.506;7.672;2024-03-25T05:08:39;28.13;;;26.37;;
6121;SDS011;3091;51.506;7.672;2024-03-25T05:11:05;25.50;;;24.00;;
6121;SDS011;3091;51.506;7.672;2024-03-25T05:13:31;26.53;;;24.97;;
6121;SDS011;3091;51.506;7.672;2024-03-25T05:15:57;30.13;;;27.73;;
6121;SDS011;3091;51.506;7.672;2024-03-25T05:18:25;25.60;;;24.10;;
6121;SDS011;3091;51.506;7.672;2024-03-25T05:20:51;27.37;;;25.73;;
6121;SDS011;3091;51.506;7.672;2024-03-25T05:23:17;28.87;;;27.23;;
6121;SDS011;3091;51.506;7.672;2024-03-25T05:25:43;31.97;;;30.03;;
6121;SDS011;3091;51.506;7.672;2024-03-25T05:28:09;32.23;;;29.30;;
6121;SDS011;3091;51.506;7.672;2024-03-25T05:30:38;29.73;;;28.13;;
6121;SDS011;3091;51.506;7.672;2024-03-25T05:33:04;30.17;;;27.60;;
6121;SDS011;3091;51.506;7.672;2024-03-25T05:35:30;39.27;;;37.00;;
6121;SDS011;3091;51.506;7.672;2024-03-25T05:37:59;37.30;;;35.40;;
6121;SDS011;3091;51.506;7.672;2024-03-25T05:40:26;40.20;;;38.10;;
6121;SDS011;3091;51.506;7.672;2024-03-25T05:42:52;41.57;;;39.17;;
6121;SDS011;3091;51.506;7.672;2024-03-25T05:45:18;41.13;;;38.93;;
6121;SDS011;3091;51.506;7.672;2024-03-25T05:47:44;39.90;;;37.80;;
6121;SDS011;3091;51.506;7.672;2024-03-25T05:50:10;40.70;;;38.60;;
6121;SDS011;3091;51.506;7.672;2024-03-25T05:52:36;37.53;;;35.63;;
6121;SDS011;3091;51.506;7.672;2024-03-25T05:55:02;34.73;;;32.93;;
6121;SDS011;3091;51.506;7.672;2024-03-25T05:57:28;34.17;;;31.80;;
6121;SDS011;3091;51.506;7.672;2024-03-25T05:59:54;30.10;;;28.40;;
6121;SDS011;3091;51.506;7.672;2024-03-25T06:02:20;32.63;;;30.50;;
6121;SDS011;3091;51.506;7.672;2024-03-25T06:04:46;32.90;;;31.30;;
6121;SDS011;3091;51.506;7.672;2024-03-25T06:07:13;34.43;;;32.40;;
6121;SDS011;3091;51.506;7.672;2024-03-25T06:09:39;34.50;;;32.70;;
6121;SDS011;3091;51.506;7.672;2024-03-25T06:12:05;36.07;;;34.07;;
6121;SDS011;3091;51.506;7.672;2024-03-25T06:14:32;38.13;;;36.23;;
6121;SDS011;3091;51.506;7.672;2024-03-25T06:16:58;36.70;;;34.70;;
6121;SDS011;3091;51.506;7.672;2024-03-25T06:19:24;36.50;;;34.50;;
6121;SDS011;3091;51.506;7.672;2024-03-25T06:21:49;38.30;;;36.50;;
6121;SDS011;3091;51.506;7.672;2024-03-25T06:24:16;38.27;;;35.60;;
6121;SDS011;3091;51.506;7.672;2024-03-25T06:26:42;33.87;;;31.97;;
6121;SDS011;3091;51.506;7.672;2024-03-25T06:29:10;33.73;;;31.67;;
6121;SDS011;3091;51.506;7.672;2024-03-25T06:31:36;32.97;;;31.37;;
6121;SDS011;3091;51.506;7.672;2024-03-25T06:34:21;32.33;;;30.83;;
6121;SDS011;3091;51.506;7.672;2024-03-25T06:36:47;30.17;;;28.67;;
6121;SDS011;3091;51.506;7.672;2024-03-25T06:39:14;31.60;;;30.10;;
6121;SDS011;3091;51.506;7.672;2024-03-25T06:41:40;31.60;;;29.83;;
6121;SDS011;3091;51.506;7.672;2024-03-25T06:44:06;30.20;;;28.70;;
6121;SDS011;3091;51.506;7.672;2024-03-25T06:46:32;28.97;;;27.57;;
6121;SDS011;3091;51.506;7.672;2024-03-25T06:48:59;30.13;;;27.90;;
6121;SDS011;3091;51.506;7.672;2024-03-25T06:51:25;27.23;;;25.83;;
6121;SDS011;3091;51.506;7.672;2024-03-25T06:53:51;25.97;;;24.60;;
6121;SDS011;3091;51.506;7.672;2024-03-25T06:56:17;24.73;;;23.53;;
6121;SDS011;3091;51.506;7.672;2024-03-25T06:58:43;22.33;;;21.43;;
6121;SDS011;3091;51.506;7.672;2024-03-25T07:01:10;25.20;;;23.83;;
6121;SDS011;3091;51.506;7.672;2024-03-25T07:03:37;22.70;;;21.70;;
6121;SDS011;3091;51.506;7.672;2024-03-25T07:06:03;24.10;;;23.10;;
6121;SDS011;3091;51.506;7.672;2024-03-25T07:08:30;23.63;;;22.67;;
6121;SDS011;3091;51.506;7.672;2024-03-25T07:10:56;22.07;;;21.17;;
6121;SDS011;3091;51.506;7.672;2024-03-25T07:13:22;21.60;;;20.70;;
6121;SDS011;3091;51.506;7.672;2024-03-25T07:15:48;23.03;;;21.93;;
6121;SDS011;3091;51.506;7.672;2024-03-25T07:18:14;21.40;;;20.50;;
6121;SDS011;3091;51.506;7.672;2024-03-25T07:20:43;22.83;;;21.63;;
6121;SDS011;3091;51.506;7.672;2024-03-25T07:23:10;20.33;;;19.53;;
6121;SDS011;3091;51.506;7.672;2024-03-25T07:25:36;20.40;;;19.60;;
6121;SDS011;3091;51.506;7.672;2024-03-25T07:28:02;21.30;;;20.50;;
6121;SDS011;3091;51.506;7.672;2024-03-25T07:30:29;18.80;;;18.00;;
6121;SDS011;3091;51.506;7.672;2024-03-25T07:32:55;15.97;;;15.37;;
6121;SDS011;3091;51.506;7.672;2024-03-25T07:35:21;17.40;;;16.70;;
6121;SDS011;3091;51.506;7.672;2024-03-25T07:37:48;16.50;;;15.90;;
6121;SDS011;3091;51.506;7.672;2024-03-25T07:40:16;18.00;;;17.40;;
6121;SDS011;3091;51.506;7.672;2024-03-25T07:42:42;17.10;;;16.50;;
6121;SDS011;3091;51.506;7.672;2024-03-25T07:45:08;18.47;;;17.67;;
6121;SDS011;3091;51.506;7.672;2024-03-25T07:47:36;16.30;;;15.70;;
6121;SDS011;3091;51.506;7.672;2024-03-25T07:50:03;16.90;;;16.30;;
6121;SDS011;3091;51.506;7.672;2024-03-25T07:52:31;17.50;;;16.90;;
6121;SDS011;3091;51.506;7.672;2024-03-25T07:54:57;16.30;;;15.70;;
6121;SDS011;3091;51.506;7.672;2024-03-25T07:57:23;17.60;;;17.00;;
6121;SDS011;3091;51.506;7.672;2024-03-25T07:59:49;20.37;;;19.47;;
6121;SDS011;3091;51.506;7.672;2024-03-25T08:02:15;18.50;;;17.47;;
6121;SDS011;3091;51.506;7.672;2024-03-25T08:04:41;18.40;;;17.80;;
6121;SDS011;3091;51.506;7.672;2024-03-25T08:07:07;18.50;;;17.90;;
6121;SDS011;3091;51.506;7.672;2024-03-25T08:09:33;18.93;;;18.27;;
6121;SDS011;3091;51.506;7.672;2024-03-25T08:11:59;21.37;;;18.90;;
6121;SDS011;3091;51.506;7.672;2024-03-25T08:14:25;17.80;;;17.20;;
6121;SDS011;3091;51.506;7.672;2024-03-25T08:16:51;19.00;;;18.30;;
6121;SDS011;3091;51.506;7.672;2024-03-25T08:19:17;19.33;;;18.50;;
6121;SDS011;3091;51.506;7.672;2024-03-25T08:21:43;17.30;;;16.70;;
6121;SDS011;3091;51.506;7.672;2024-03-25T08:24:13;16.87;;;16.37;;
6121;SDS011;3091;51.506;7.672;2024-03-25T08:26:40;17.50;;;16.90;;
6121;SDS011;3091;51.506;7.672;2024-03-25T08:29:06;17.40;;;16.80;;
6121;SDS011;3091;51.506;7.672;2024-03-25T08:31:32;17.30;;;16.70;;
6121;SDS011;3091;51.506;7.672;2024-03-25T08:33:58;17.43;;;16.83;;
6121;SDS011;3091;51.506;7.672;2024-03-25T08:36:24;18.13;;;17.23;;
6121;SDS011;3091;51.506;7.672;2024-03-25T08:38:50;18.73;;;18.13;;
6121;SDS011;3091;51.506;7.672;2024-03-25T08:41:16;20.50;;;19.80;;
6121;SDS011;3091;51.506;7.672;2024-03-25T08:43:43;19.97;;;19.27;;
6121;SDS011;3091;51.506;7.672;2024-03-25T08:46:09;19.90;;;19.20;;
6121;SDS011;3091;51.506;7.672;2024-03-25T08:48:35;19.80;;;19.10;;
6121;SDS011;3091;51.506;7.672;2024-03-25T08:51:01;19.67;;;18.97;;
6121;SDS011;3091;51.506;7.672;2024-03-25T08:53:33;20.90;;;20.20;;
6121;SDS011;3091;51.506;7.672;2024-03-25T08:55:59;21.10;;;20.40;;
6121;SDS011;3091;51.506;7.672;2024-03-25T08:58:25;17.20;;;16.60;;
6121;SDS011;3091;51.506;7.672;2024-03-25T09:00:51;22.00;;;21.30;;
6121;SDS011;3091;51.506;7.672;2024-03-25T09:03:18;21.60;;;20.90;;
6121;SDS011;3091;51.506;7.672;2024-03-25T09:05:44;19.77;;;19.07;;
6121;SDS011;3091;51.506;7.672;2024-03-25T09:08:10;19.60;;;18.90;;
6121;SDS011;3091;51.506;7.672;2024-03-25T09:10:36;23.27;;;22.47;;
6121;SDS011;3091;51.506;7.672;2024-03-25T09:13:22;24.70;;;23.90;;
6121;SDS011;3091;51.506;7.672;2024-03-25T09:15:49;25.33;;;24.53;;
6121;SDS011;3091;51.506;7.672;2024-03-25T09:18:15;25.40;;;24.60;;
6121;SDS011;3091;51.506;7.672;2024-03-25T09:20:44;25.30;;;24.50;;
6121;SDS011;3091;51.506;7.672;2024-03-25T09:23:11;26.70;;;25.80;;
6121;SDS011;3091;51.506;7.672;2024-03-25T09:25:38;25.10;;;24.30;;
6121;SDS011;3091;51.506;7.672;2024-03-25T09:28:04;25.47;;;24.67;;
6121;SDS011;3091;51.506;7.672;2024-03-25T09:30:31;20.90;;;20.20;;
6121;SDS011;3091;51.506;7.672;2024-03-25T09:32:59;19.53;;;18.93;;
6121;SDS011;3091;51.506;7.672;2024-03-25T09:35:25;18.30;;;17.70;;
6121;SDS011;3091;51.506;7.672;2024-03-25T09:37:54;18.73;;;18.13;;
6121;SDS011;3091;51.506;7.672;2024-03-25T09:40:21;17.90;;;17.30;;
6121;SDS011;3091;51.506;7.672;2024-03-25T09:42:56;19.20;;;18.50;;
6121;SDS011;3091;51.506;7.672;2024-03-25T09:45:43;18.47;;;17.87;;
6121;SDS011;3091;51.506;7.672;2024-03-25T09:48:08;19.47;;;18.77;;
6121;SDS011;3091;51.506;7.672;2024-03-25T09:50:37;17.77;;;17.17;;
6121;SDS011;3091;51.506;7.672;2024-03-25T09:53:04;21.90;;;21.20;;
6121;SDS011;3091;51.506;7.672;2024-03-25T09:55:30;23.10;;;22.30;;
6121;SDS011;3091;51.506;7.672;2024-03-25T09:57:56;19.77;;;19.07;;
6121;SDS011;3091;51.506;7.672;2024-03-25T10:00:23;21.67;;;20.97;;
6121;SDS011;3091;51.506;7.672;2024-03-25T10:02:49;17.77;;;17.17;;
6121;SDS011;3091;51.506;7.672;2024-03-25T10:05:15;19.10;;;18.50;;
6121;SDS011;3091;51.506;7.672;2024-03-25T10:07:41;19.83;;;19.23;;
6121;SDS011;3091;51.506;7.672;2024-03-25T10:10:07;19.10;;;18.50;;
6121;SDS011;3091;51.506;7.672;2024-03-25T10:12:35;19.07;;;18.47;;
6121;SDS011;3091;51.506;7.672;2024-03-25T10:15:02;19.47;;;18.30;;
6121;SDS011;3091;51.506;7.672;2024-03-25T10:17:30;20.37;;;19.67;;
6121;SDS011;3091;51.506;7.672;2024-03-25T10:19:56;25.37;;;24.57;;
6121;SDS011;3091;51.506;7.672;2024-03-25T10:22:22;26.00;;;25.10;;
6121;SDS011;3091;51.506;7.672;2024-03-25T10:24:48;21.80;;;21.10;;
6121;SDS011;3091;51.506;7.672;2024-03-25T10:29:45;20.80;;;20.10;;
6121;SDS011;3091;51.506;7.672;2024-03-25T10:32:12;22.47;;;21.67;;
6121;SDS011;3091;51.506;7.672;2024-03-25T10:34:38;21.83;;;21.13;;
6121;SDS011;3091;51.506;7.672;2024-03-25T10:37:04;27.70;;;26.70;;
6121;SDS011;3091;51.506;7.672;2024-03-25T10:39:31;28.40;;;27.40;;
6121;SDS011;3091;51.506;7.672;2024-03-25T10:41:59;26.00;;;25.20;;
6121;SDS011;3091;51.506;7.672;2024-03-25T10:44:28;26.57;;;25.67;;
6121;SDS011;3091;51.506;7.672;2024-03-25T10:46:59;28.10;;;27.10;;
6121;SDS011;3091;51.506;7.672;2024-03-25T10:49:28;29.00;;;28.00;;
6121;SDS011;3091;51.506;7.672;2024-03-25T10:51:59;28.30;;;27.40;;
6121;SDS011;3091;51.506;7.672;2024-03-25T10:54:26;28.93;;;28.00;;
6121;SDS011;3091;51.506;7.672;2024-03-25T10:56:52;30.30;;;29.30;;
6121;SDS011;3091;51.506;7.672;2024-03-25T10:59:18;28.90;;;27.90;;
6121;SDS011;3091;51.506;7.672;2024-03-25T11:01:46;26.80;;;25.90;;
6121;SDS011;3091;51.506;7.672;2024-03-25T11:04:13;22.73;;;21.93;;
6121;SDS011;3091;51.506;7.672;2024-03-25T11:06:40;19.37;;;18.77;;
6121;SDS011;3091;51.506;7.672;2024-03-25T11:09:06;19.43;;;18.83;;
6121;SDS011;3091;51.506;7.672;2024-03-25T11:11:35;19.60;;;18.90;;
6121;SDS011;3091;51.506;7.672;2024-03-25T11:14:14;19.03;;;18.43;;
6121;SDS011;3091;51.506;7.672;2024-03-25T11:16:40;18.63;;;18.03;;
6121;SDS011;3091;51.506;7.672;2024-03-25T11:19:10;19.50;;;18.90;;
6121;SDS011;3091;51.506;7.672;2024-03-25T11:21:36;23.03;;;22.30;;
6121;SDS011;3091;51.506;7.672;2024-03-25T11:24:08;23.77;;;22.97;;
6121;SDS011;3091;51.506;7.672;2024-03-25T11:26:34;19.50;;;18.90;;
6121;SDS011;3091;51.506;7.672;2024-03-25T11:29:03;20.30;;;19.60;;
6121;SDS011;3091;51.506;7.672;2024-03-25T11:31:29;20.20;;;19.20;;
6121;SDS011;3091;51.506;7.672;2024-03-25T11:33:56;22.80;;;22.10;;
6121;SDS011;3091;51.506;7.672;2024-03-25T11:36:22;21.47;;;20.77;;
6121;SDS011;3091;51.506;7.672;2024-03-25T11:38:57;21.47;;;20.33;;
6121;SDS011;3091;51.506;7.672;2024-03-25T11:41:23;19.90;;;19.07;;
6121;SDS011;3091;51.506;7.672;2024-03-25T11:43:49;21.50;;;20.70;;
6121;SDS011;3091;51.506;7.672;2024-03-25T11:46:18;19.90;;;19.20;;
6121;SDS011;3091;51.506;7.672;2024-03-25T11:48:44;19.57;;;18.97;;
6121;SDS011;3091;51.506;7.672;2024-03-25T11:51:12;21.00;;;20.30;;
6121;SDS011;3091;51.506;7.672;2024-03-25T11:53:38;19.60;;;19.00;;
6121;SDS011;3091;51.506;7.672;2024-03-25T11:56:04;19.93;;;19.27;;
6121;SDS011;3091;51.506;7.672;2024-03-25T11:58:30;19.63;;;19.00;;
6121;SDS011;3091;51.506;7.672;2024-03-25T12:00:56;18.40;;;17.80;;
6121;SDS011;3091;51.506;7.672;2024-03-25T12:03:22;18.93;;;18.33;;
6121;SDS011;3091;51.506;7.672;2024-03-25T12:05:48;22.13;;;21.33;;
6121;SDS011;3091;51.506;7.672;2024-03-25T12:08:14;27.17;;;26.27;;
6121;SDS011;3091;51.506;7.672;2024-03-25T12:10:40;31.50;;;30.40;;
6121;SDS011;3091;51.506;7.672;2024-03-25T12:13:25;21.57;;;20.87;;
6121;SDS011;3091;51.506;7.672;2024-03-25T12:15:52;23.10;;;22.30;;
6121;SDS011;3091;51.506;7.672;2024-03-25T12:18:21;25.70;;;24.87;;
6121;SDS011;3091;51.506;7.672;2024-03-25T12:20:47;27.33;;;26.43;;
6121;SDS011;3091;51.506;7.672;2024-03-25T12:23:13;30.77;;;29.77;;
6121;SDS011;3091;51.506;7.672;2024-03-25T12:25:40;25.93;;;25.13;;
6121;SDS011;3091;51.506;7.672;2024-03-25T12:28:09;25.10;;;24.30;;
6121;SDS011;3091;51.506;7.672;2024-03-25T12:30:56;25.63;;;24.73;;
6121;SDS011;3091;51.506;7.672;2024-03-25T12:33:24;25.50;;;24.70;;
6121;SDS011;3091;51.506;7.672;2024-03-25T12:35:51;26.60;;;25.70;;
6121;SDS011;3091;51.506;7.672;2024-03-25T12:38:24;25.03;;;24.23;;
6121;SDS011;3091;51.506;7.672;2024-03-25T12:40:50;25.03;;;24.23;;
6121;SDS011;3091;51.506;7.672;2024-03-25T12:43:16;26.43;;;25.53;;
6121;SDS011;3091;51.506;7.672;2024-03-25T12:45:42;25.03;;;24.23;;
6121;SDS011;3091;51.506;7.672;2024-03-25T12:48:09;24.97;;;23.77;;
6121;SDS011;3091;51.506;7.672;2024-03-25T12:50:35;24.67;;;23.87;;
6121;SDS011;3091;51.506;7.672;2024-03-25T12:53:01;25.00;;;24.20;;
6121;SDS011;3091;51.506;7.672;2024-03-25T12:55:30;25.00;;;24.20;;
6121;SDS011;3091;51.506;7.672;2024-03-25T12:57:56;23.40;;;22.60;;
6121;SDS011;3091;51.506;7.672;2024-03-25T13:00:22;20.17;;;18.80;;
6121;SDS011;3091;51.506;7.672;2024-03-25T13:02:49;24.23;;;23.43;;
6121;SDS011;3091;51.506;7.672;2024-03-25T13:05:18;24.70;;;23.90;;
6121;SDS011;3091;51.506;7.672;2024-03-25T13:07:44;24.33;;;23.53;;
6121;SDS011;3091;51.506;7.672;2024-03-25T13:10:10;25.07;;;24.23;;
6121;SDS011;3091;51.506;7.672;2024-03-25T13:12:35;23.30;;;22.50;;
6121;SDS011;3091;51.506;7.672;2024-03-25T13:15:02;24.70;;;23.90;;
6121;SDS011;3091;51.506;7.672;2024-03-25T13:17:28;23.70;;;22.90;;
6121;SDS011;3091;51.506;7.672;2024-03-25T13:19:54;24.20;;;23.40;;
6121;SDS011;3091;51.506;7.672;2024-03-25T13:22:20;25.23;;;24.33;;
6121;SDS011;3091;51.506;7.672;2024-03-25T13:24:46;24.27;;;23.47;;
6121;SDS011;3091;51.506;7.672;2024-03-25T13:27:12;24.00;;;23.20;;
6121;SDS011;3091;51.506;7.672;2024-03-25T13:29:38;22.40;;;21.70;;
6121;SDS011;3091;51.506;7.672;2024-03-25T13:32:04;24.03;;;23.23;;
6121;SDS011;3091;51.506;7.672;2024-03-25T13:34:33;25.13;;;24.33;;
6121;SDS011;3091;51.506;7.672;2024-03-25T13:36:59;25.57;;;24.40;;
6121;SDS011;3091;51.506;7.672;2024-03-25T13:39:25;24.23;;;23.43;;
6121;SDS011;3091;51.506;7.672;2024-03-25T13:41:51;24.17;;;23.37;;
6121;SDS011;3091;51.506;7.672;2024-03-25T13:44:17;23.70;;;22.90;;
6121;SDS011;3091;51.506;7.672;2024-03-25T13:46:43;26.40;;;25.50;;
6121;SDS011;3091;51.506;7.672;2024-03-25T13:49:09;25.43;;;24.53;;
6121;SDS011;3091;51.506;7.672;2024-03-25T13:51:36;25.70;;;24.80;;
6121;SDS011;3091;51.506;7.672;2024-03-25T13:54:02;25.80;;;24.90;;
6121;SDS011;3091;51.506;7.672;2024-03-25T13:56:28;25.90;;;25.00;;
6121;SDS011;3091;51.506;7.672;2024-03-25T13:58:54;24.57;;;23.77;;
6121;SDS011;3091;51.506;7.672;2024-03-25T14:01:20;25.70;;;24.80;;
6121;SDS011;3091;51.506;7.672;2024-03-25T14:03:46;25.70;;;24.80;;
6121;SDS011;3091;51.506;7.672;2024-03-25T14:06:12;24.33;;;23.53;;
6121;SDS011;3091;51.506;7.672;2024-03-25T14:08:38;20.23;;;19.53;;
6121;SDS011;3091;51.506;7.672;2024-03-25T14:11:04;19.60;;;19.00;;
6121;SDS011;3091;51.506;7.672;2024-03-25T14:13:30;19.03;;;18.43;;
6121;SDS011;3091;51.506;7.672;2024-03-25T14:15:56;18.20;;;17.60;;
6121;SDS011;3091;51.506;7.672;2024-03-25T14:18:22;20.10;;;19.40;;
6121;SDS011;3091;51.506;7.672;2024-03-25T14:20:49;23.93;;;23.13;;
6121;SDS011;3091;51.506;7.672;2024-03-25T14:23:18;24.20;;;23.40;;
6121;SDS011;3091;51.506;7.672;2024-03-25T14:25:44;22.70;;;22.00;;
6121;SDS011;3091;51.506;7.672;2024-03-25T14:28:10;22.97;;;22.27;;
6121;SDS011;3091;51.506;7.672;2024-03-25T14:30:36;22.80;;;22.10;;
6121;SDS011;3091;51.506;7.672;2024-03-25T14:33:02;22.50;;;21.80;;
6121;SDS011;3091;51.506;7.672;2024-03-25T14:35:28;23.83;;;23.03;;
6121;SDS011;3091;51.506;7.672;2024-03-25T14:37:54;23.27;;;22.47;;
6121;SDS011;3091;51.506;7.672;2024-03-25T14:40:20;22.70;;;22.00;;
6121;SDS011;3091;51.506;7.672;2024-03-25T14:42:46;21.63;;;20.93;;